createdAt,value
2022-09-14T00:01:44.976Z,14.12
2022-09-14T00:04:16.745Z,14.09
2022-09-14T00:06:47.455Z,14.07
2022-09-14T00:09:19.670Z,14.03
2022-09-14T00:11:48.158Z,14.01
2022-09-14T00:14:17.958Z,14.00
2022-09-14T00:16:46.853Z,13.98
2022-09-14T00:19:21.339Z,13.97
2022-09-14T00:21:55.549Z,13.94
2022-09-14T00:24:25.283Z,13.91
2022-09-14T00:26:54.165Z,13.89
2022-09-14T00:29:23.765Z,13.87
2022-09-14T00:31:52.585Z,13.85
2022-09-14T00:34:21.435Z,13.86
2022-09-14T00:36:52.862Z,13.88
2022-09-14T00:39:25.373Z,13.92
2022-09-14T00:41:54.892Z,13.98
2022-09-14T00:45:08.245Z,14.03
2022-09-14T00:47:37.194Z,14.09
2022-09-14T00:50:07.529Z,14.13
2022-09-14T00:52:42.782Z,14.20
2022-09-14T00:55:14.881Z,14.24
2022-09-14T00:57:47.830Z,14.28
2022-09-14T01:00:21.740Z,14.32
2022-09-14T01:02:50.357Z,14.36
2022-09-14T01:05:20.697Z,14.39
2022-09-14T01:08:14.813Z,14.39
2022-09-14T01:11:07.791Z,14.38
2022-09-14T01:13:48.601Z,14.38
2022-09-14T01:16:26.900Z,14.40
2022-09-14T01:19:00.185Z,14.44
2022-09-14T01:21:33.064Z,14.47
2022-09-14T01:24:14.591Z,14.50
2022-09-14T01:27:32.891Z,14.52
2022-09-14T01:30:10.223Z,14.54
2022-09-14T01:32:46.151Z,14.58
2022-09-14T01:35:22.450Z,14.58
2022-09-14T01:37:58.734Z,14.59
2022-09-14T01:40:34.177Z,14.58
2022-09-14T01:43:11.416Z,14.55
2022-09-14T01:45:45.358Z,14.55
2022-09-14T01:48:18.118Z,14.55
2022-09-14T01:50:48.107Z,14.51
2022-09-14T01:53:23.531Z,14.52
2022-09-14T01:56:01.127Z,14.52
2022-09-14T01:58:37.932Z,14.54
2022-09-14T02:01:10.682Z,14.54
2022-09-14T02:03:46.567Z,14.54
2022-09-14T02:06:21.411Z,14.54
2022-09-14T02:08:52.237Z,14.55
2022-09-14T02:11:20.751Z,14.55
2022-09-14T02:13:50.578Z,14.56
2022-09-14T02:16:21.118Z,14.57
2022-09-14T02:18:49.605Z,14.57
2022-09-14T02:21:20.871Z,14.58
2022-09-14T02:23:50.152Z,14.57
2022-09-14T02:26:20.772Z,14.57
2022-09-14T02:28:55.833Z,14.58
2022-09-14T02:31:34.932Z,14.56
2022-09-14T02:34:10.807Z,14.55
2022-09-14T02:36:50.600Z,14.54
2022-09-14T02:39:37.176Z,14.51
2022-09-14T02:42:18.306Z,14.45
2022-09-14T02:45:03.601Z,14.39
2022-09-14T02:47:40.603Z,14.31
2022-09-14T02:50:21.055Z,14.22
2022-09-14T02:52:59.593Z,14.13
2022-09-14T02:55:35.112Z,14.04
2022-09-14T02:58:06.967Z,13.94
2022-09-14T03:00:40.381Z,13.86
2022-09-14T03:03:11.167Z,13.78
2022-09-14T03:05:40.125Z,13.72
2022-09-14T03:08:10.271Z,13.67
2022-09-14T03:10:39.622Z,13.62
2022-09-14T03:13:07.963Z,13.55
2022-09-14T03:15:37.851Z,13.49
2022-09-14T03:18:12.331Z,13.47
2022-09-14T03:20:42.740Z,13.45
2022-09-14T03:23:11.920Z,13.43
2022-09-14T03:25:42.654Z,13.44
2022-09-14T03:28:13.471Z,13.45
2022-09-14T03:30:43.214Z,13.46
2022-09-14T03:33:12.167Z,13.48
2022-09-14T03:35:40.503Z,13.49
2022-09-14T03:38:08.744Z,13.51
2022-09-14T03:40:36.995Z,13.56
2022-09-14T03:43:05.196Z,13.58
2022-09-14T03:45:33.436Z,13.61
2022-09-14T03:48:03.550Z,13.62
2022-09-14T03:50:32.074Z,13.63
2022-09-14T03:53:00.430Z,13.64
2022-09-14T03:55:28.738Z,13.63
2022-09-14T03:57:57.263Z,13.62
2022-09-14T04:00:25.627Z,13.60
2022-09-14T04:02:53.904Z,13.59
2022-09-14T04:05:23.471Z,13.59
2022-09-14T04:07:51.654Z,13.59
2022-09-14T04:10:19.958Z,13.56
2022-09-14T04:12:48.184Z,13.51
2022-09-14T04:15:16.532Z,13.48
2022-09-14T04:17:44.886Z,13.45
2022-09-14T04:20:13.108Z,13.40
2022-09-14T04:22:42.657Z,13.38
2022-09-14T04:25:11.109Z,13.36
2022-09-14T04:27:39.571Z,13.32
2022-09-14T04:30:09.035Z,13.29
2022-09-14T04:32:37.222Z,13.25
2022-09-14T04:35:06.006Z,13.20
2022-09-14T04:37:34.259Z,13.18
2022-09-14T04:40:04.336Z,13.16
2022-09-14T04:42:32.546Z,13.12
2022-09-14T04:45:00.760Z,13.12
2022-09-14T04:47:30.890Z,13.11
2022-09-14T04:49:59.073Z,13.15
2022-09-14T04:52:27.281Z,13.17
2022-09-14T04:54:55.459Z,13.20
2022-09-14T04:57:25.165Z,13.26
2022-09-14T04:59:53.349Z,13.30
2022-09-14T05:02:21.729Z,13.33
2022-09-14T05:04:50.147Z,13.37
2022-09-14T05:07:18.289Z,13.42
2022-09-14T05:09:46.536Z,13.46
2022-09-14T05:12:14.698Z,13.52
2022-09-14T05:14:44.242Z,13.56
2022-09-14T05:17:12.412Z,13.61
2022-09-14T05:19:40.585Z,13.65
2022-09-14T05:22:08.744Z,13.70
2022-09-14T05:24:36.976Z,13.77
2022-09-14T05:27:05.388Z,13.83
2022-09-14T05:29:33.587Z,13.87
2022-09-14T05:32:03.806Z,13.93
2022-09-14T05:34:31.992Z,13.99
2022-09-14T05:37:00.161Z,14.03
2022-09-14T05:39:28.318Z,14.06
2022-09-14T05:41:56.510Z,14.08
2022-09-14T05:44:24.676Z,14.10
2022-09-14T05:46:53.191Z,14.13
2022-09-14T05:49:25.180Z,14.16
2022-09-14T05:51:53.360Z,14.20
2022-09-14T05:54:21.654Z,14.25
2022-09-14T05:56:49.865Z,14.32
2022-09-14T05:59:18.055Z,14.36
2022-09-14T06:01:46.490Z,14.45
2022-09-14T06:04:14.654Z,14.56
2022-09-14T06:06:55.958Z,14.72
2022-09-14T06:09:33.325Z,14.87
2022-09-14T06:12:01.712Z,14.97
2022-09-14T06:14:29.889Z,15.08
2022-09-14T06:16:58.664Z,15.19
2022-09-14T06:19:26.973Z,15.28
2022-09-14T06:21:56.553Z,15.34
2022-09-14T06:24:25.017Z,15.40
2022-09-14T06:26:53.168Z,15.43
2022-09-14T06:29:21.363Z,15.47
2022-09-14T06:31:49.573Z,15.48
2022-09-14T06:34:18.026Z,15.51
2022-09-14T06:36:46.885Z,15.51
2022-09-14T06:39:16.700Z,15.51
2022-09-14T06:41:45.150Z,15.52
2022-09-14T06:44:14.079Z,15.55
2022-09-14T06:46:46.969Z,15.60
2022-09-14T06:49:20.586Z,15.63
2022-09-14T06:51:50.399Z,15.67
2022-09-14T06:54:20.253Z,15.72
2022-09-14T06:56:48.462Z,15.77
2022-09-14T06:59:18.887Z,15.83
2022-09-14T07:01:48.290Z,15.88
2022-09-14T07:04:16.695Z,15.92
2022-09-14T07:06:47.024Z,15.96
2022-09-14T07:09:16.088Z,16.05
2022-09-14T07:11:46.310Z,16.13
2022-09-14T07:14:14.647Z,16.21
2022-09-14T07:16:42.892Z,16.28
2022-09-14T07:19:13.813Z,16.37
2022-09-14T07:21:43.012Z,16.47
2022-09-14T07:24:12.874Z,16.68
2022-09-14T07:26:42.810Z,16.91
2022-09-14T07:29:17.321Z,17.08
2022-09-14T07:31:48.074Z,17.19
2022-09-14T07:34:16.831Z,17.27
2022-09-14T07:36:45.515Z,17.36
2022-09-14T07:39:16.418Z,17.45
2022-09-14T07:41:45.595Z,17.54
2022-09-14T07:44:18.817Z,17.59
2022-09-14T07:46:47.862Z,17.59
2022-09-14T07:49:17.454Z,17.57
2022-09-14T07:51:46.734Z,17.61
2022-09-14T07:54:17.661Z,17.72
2022-09-14T07:56:46.005Z,17.76
2022-09-14T07:59:35.950Z,17.88
2022-09-14T08:02:08.340Z,18.02
2022-09-14T08:04:38.616Z,18.19
2022-09-14T08:07:07.830Z,18.39
2022-09-14T08:09:36.024Z,18.56
2022-09-14T08:12:05.531Z,18.67
2022-09-14T08:14:35.338Z,18.83
2022-09-14T08:17:03.667Z,18.96
2022-09-14T08:19:31.881Z,19.05
2022-09-14T08:22:00.035Z,19.11
2022-09-14T08:24:28.253Z,19.26
2022-09-14T08:26:56.413Z,19.43
2022-09-14T08:29:24.902Z,19.50
2022-09-14T08:31:54.522Z,19.51
2022-09-14T08:34:22.756Z,19.52
2022-09-14T08:36:51.149Z,19.50
2022-09-14T08:39:19.752Z,19.39
2022-09-14T08:41:56.721Z,19.21
2022-09-14T08:44:32.194Z,19.15
2022-09-14T08:47:05.430Z,19.34
2022-09-14T08:49:48.701Z,19.64
2022-09-14T08:52:27.009Z,19.69
2022-09-14T08:54:58.505Z,19.61
2022-09-14T08:57:36.863Z,19.52
2022-09-14T09:00:12.117Z,19.43
2022-09-14T09:03:32.259Z,19.22
2022-09-14T09:06:15.778Z,19.05
2022-09-14T09:08:59.325Z,18.96
2022-09-14T09:11:35.626Z,18.90
2022-09-14T09:14:18.504Z,18.85
2022-09-14T09:16:51.269Z,18.79
2022-09-14T09:19:28.819Z,18.75
2022-09-14T09:21:58.208Z,18.73
2022-09-14T09:24:37.047Z,18.70
2022-09-14T09:27:11.969Z,18.65
2022-09-14T09:29:40.343Z,18.57
2022-09-14T09:32:14.982Z,18.47
2022-09-14T09:34:44.674Z,18.37
2022-09-14T09:37:16.067Z,18.24
2022-09-14T09:39:45.240Z,18.12
2022-09-14T09:42:20.999Z,17.97
2022-09-14T09:45:03.219Z,17.81
2022-09-14T09:47:36.444Z,17.70
2022-09-14T09:50:18.683Z,17.64
2022-09-14T09:52:51.621Z,17.66
2022-09-14T09:55:22.078Z,17.72
2022-09-14T09:57:50.584Z,17.81
2022-09-14T10:00:25.516Z,18.02
2022-09-14T10:02:55.398Z,18.22
2022-09-14T10:05:28.999Z,18.39
2022-09-14T10:08:00.881Z,18.54
2022-09-14T10:10:44.696Z,18.65
2022-09-14T10:13:25.988Z,18.72
2022-09-14T10:15:54.298Z,18.77
2022-09-14T10:18:31.651Z,18.79
2022-09-14T10:21:10.032Z,18.80
2022-09-14T10:23:39.396Z,18.80
2022-09-14T10:26:26.865Z,18.86
2022-09-14T10:28:55.164Z,18.88
2022-09-14T10:31:31.205Z,18.89
2022-09-14T10:34:01.009Z,18.93
2022-09-14T10:36:33.658Z,19.00
2022-09-14T10:39:12.828Z,19.06
2022-09-14T10:41:48.145Z,19.08
2022-09-14T10:44:46.258Z,19.09
2022-09-14T10:47:52.411Z,19.17
2022-09-14T10:50:34.537Z,19.26
2022-09-14T10:53:19.877Z,19.28
2022-09-14T10:55:56.671Z,19.18
2022-09-14T10:58:43.779Z,19.08
2022-09-14T11:01:27.954Z,19.00
2022-09-14T11:04:18.189Z,18.91
2022-09-14T11:07:00.055Z,18.93
2022-09-14T11:09:37.029Z,19.10
2022-09-14T11:12:24.442Z,19.28
2022-09-14T11:15:09.654Z,19.42
2022-09-14T11:17:55.006Z,19.54
2022-09-14T11:20:41.951Z,19.60
2022-09-14T11:23:38.523Z,19.73
2022-09-14T11:26:14.491Z,19.89
2022-09-14T11:28:47.626Z,20.03
2022-09-14T11:31:23.046Z,20.14
2022-09-14T11:33:58.989Z,20.27
2022-09-14T11:36:30.764Z,20.43
2022-09-14T11:39:12.929Z,20.61
2022-09-14T11:41:48.673Z,20.68
2022-09-14T11:44:23.310Z,20.73
2022-09-14T11:47:00.970Z,20.78
2022-09-14T11:49:39.707Z,20.77
2022-09-14T11:52:15.789Z,20.69
2022-09-14T11:54:46.881Z,20.53
2022-09-14T11:57:20.714Z,20.35
2022-09-14T11:59:54.101Z,20.19
2022-09-14T12:02:59.552Z,20.02
2022-09-14T12:05:34.453Z,19.97
2022-09-14T12:08:36.902Z,19.96
2022-09-14T12:11:26.555Z,19.92
2022-09-14T12:14:30.326Z,19.80
2022-09-14T12:20:38.069Z,19.53
2022-09-14T12:23:30.055Z,19.40
2022-09-14T12:26:32.207Z,19.21
2022-09-14T12:29:23.128Z,19.07
2022-09-14T12:32:07.124Z,18.90
2022-09-14T12:34:35.698Z,18.79
2022-09-14T12:37:31.456Z,18.66
2022-09-14T12:40:37.496Z,18.60
2022-09-14T12:43:53.536Z,18.59
2022-09-14T12:46:41.792Z,18.66
2022-09-14T12:49:35.607Z,18.79
2022-09-14T12:52:33.938Z,19.02
2022-09-14T12:55:20.781Z,19.25
2022-09-14T12:57:58.053Z,19.39
2022-09-14T13:00:27.767Z,19.65
2022-09-14T13:03:28.680Z,19.86
2022-09-14T13:05:59.375Z,20.03
2022-09-14T13:08:27.804Z,20.12
2022-09-14T13:10:56.024Z,20.17
2022-09-14T13:13:31.565Z,20.16
2022-09-14T13:16:03.817Z,20.07
2022-09-14T13:18:35.846Z,19.94
2022-09-14T13:21:21.285Z,19.77
2022-09-14T13:23:49.893Z,19.62
2022-09-14T13:26:21.228Z,19.42
2022-09-14T13:28:53.289Z,19.15
2022-09-14T13:31:29.579Z,18.96
2022-09-14T13:33:58.600Z,18.85
2022-09-14T13:36:30.442Z,18.72
2022-09-14T13:39:01.719Z,18.53
2022-09-14T13:41:32.208Z,18.30
2022-09-14T13:44:01.768Z,18.10
2022-09-14T13:46:30.367Z,17.94
2022-09-14T13:48:58.901Z,17.83
2022-09-14T13:51:31.494Z,17.69
2022-09-14T13:54:16.649Z,17.54
2022-09-14T13:56:44.879Z,17.45
2022-09-14T13:59:19.452Z,17.35
2022-09-14T14:01:57.078Z,17.33
2022-09-14T14:04:36.495Z,17.29
2022-09-14T14:07:19.580Z,17.28
2022-09-14T14:09:51.650Z,17.31
2022-09-14T14:12:26.622Z,17.29
2022-09-14T14:14:57.709Z,17.23
2022-09-14T14:17:34.539Z,17.21
2022-09-14T14:20:34.330Z,17.20
2022-09-14T14:23:23.314Z,17.19
2022-09-14T14:25:54.931Z,17.16
2022-09-14T14:28:26.449Z,17.14
2022-09-14T14:30:56.113Z,17.15
2022-09-14T14:33:25.384Z,17.09
2022-09-14T14:35:56.446Z,16.95
2022-09-14T14:38:26.535Z,16.88
2022-09-14T14:40:58.057Z,16.88
2022-09-14T14:43:28.200Z,16.93
2022-09-14T14:45:59.315Z,17.01
2022-09-14T14:48:28.040Z,17.06
2022-09-14T14:50:56.393Z,17.13
2022-09-14T14:53:26.891Z,17.21
2022-09-14T14:55:55.127Z,17.28
2022-09-14T14:58:24.981Z,17.38
2022-09-14T15:00:53.266Z,17.44
2022-09-14T15:03:21.617Z,17.48
2022-09-14T15:05:50.736Z,17.54
2022-09-14T15:08:20.868Z,17.61
2022-09-14T15:10:56.224Z,17.70
2022-09-14T15:13:24.499Z,17.73
2022-09-14T15:15:53.116Z,17.75
2022-09-14T15:18:21.509Z,17.75
2022-09-14T15:20:49.713Z,17.73
2022-09-14T15:23:17.933Z,17.69
2022-09-14T15:25:46.129Z,17.66
2022-09-14T15:28:15.770Z,17.64
2022-09-14T15:30:44.048Z,17.64
2022-09-14T15:33:12.690Z,17.64
2022-09-14T15:35:41.037Z,17.64
2022-09-14T15:38:09.282Z,17.61
2022-09-14T15:40:37.676Z,17.59
2022-09-14T15:43:06.182Z,17.57
2022-09-14T15:45:35.847Z,17.54
2022-09-14T15:48:04.401Z,17.51
2022-09-14T15:50:32.611Z,17.49
2022-09-14T15:53:02.826Z,17.48
2022-09-14T15:55:31.205Z,17.44
2022-09-14T15:57:59.380Z,17.40
2022-09-14T16:00:27.958Z,17.38
2022-09-14T16:02:57.519Z,17.39
2022-09-14T16:05:25.726Z,17.38
2022-09-14T16:07:54.790Z,17.37
2022-09-14T16:10:25.517Z,17.36
2022-09-14T16:12:55.347Z,17.35
2022-09-14T16:15:24.143Z,17.33
2022-09-14T16:17:53.096Z,17.27
2022-09-14T16:20:22.850Z,17.21
2022-09-14T16:22:51.804Z,17.11
2022-09-14T16:25:19.977Z,16.97
2022-09-14T16:27:48.923Z,16.77
2022-09-14T16:30:17.267Z,16.54
2022-09-14T16:32:45.723Z,16.38
2022-09-14T16:35:13.876Z,16.29
2022-09-14T16:37:43.403Z,16.21
2022-09-14T16:40:13.885Z,16.12
2022-09-14T16:42:42.916Z,16.01
2022-09-14T16:45:11.861Z,15.90
2022-09-14T16:47:40.105Z,15.82
2022-09-14T16:50:09.058Z,15.78
2022-09-14T16:52:37.229Z,15.72
2022-09-14T16:55:08.909Z,15.68
2022-09-14T16:57:37.106Z,15.66
2022-09-14T17:00:06.858Z,15.65
2022-09-14T17:02:35.168Z,15.63
2022-09-14T17:05:03.421Z,15.63
2022-09-14T17:07:31.595Z,15.63
2022-09-14T17:09:59.816Z,15.62
2022-09-14T17:12:29.294Z,15.61
2022-09-14T17:14:57.753Z,15.59
2022-09-14T17:17:26.110Z,15.58
2022-09-14T17:19:54.265Z,15.57
2022-09-14T17:22:22.485Z,15.56
2022-09-14T17:24:50.637Z,15.54
2022-09-14T17:27:19.992Z,15.52
2022-09-14T17:29:49.928Z,15.49
2022-09-14T17:32:18.196Z,15.45
2022-09-14T17:34:46.894Z,15.40
2022-09-14T17:37:15.054Z,15.36
2022-09-14T17:39:43.300Z,15.31
2022-09-14T17:42:11.539Z,15.27
2022-09-14T17:44:40.938Z,15.23
2022-09-14T17:47:10.519Z,15.18
2022-09-14T17:49:38.742Z,15.14
2022-09-14T17:52:07.034Z,15.09
2022-09-14T17:54:35.243Z,15.03
2022-09-14T17:57:03.459Z,15.00
2022-09-14T17:59:31.608Z,14.97
2022-09-14T18:01:59.811Z,14.95
2022-09-14T18:04:29.371Z,14.94
2022-09-14T18:06:57.534Z,14.93
2022-09-14T18:09:25.964Z,14.93
2022-09-14T18:11:57.482Z,14.92
2022-09-14T18:14:26.384Z,14.93
2022-09-14T18:16:54.741Z,14.93
2022-09-14T18:19:23.253Z,14.94
2022-09-14T18:21:53.154Z,14.94
2022-09-14T18:24:21.919Z,14.95
2022-09-14T18:26:50.364Z,14.95
2022-09-14T18:29:23.090Z,14.97
2022-09-14T18:31:51.231Z,14.93
2022-09-14T18:34:19.638Z,14.95
2022-09-14T18:36:47.863Z,14.96
2022-09-14T18:39:17.611Z,14.96
2022-09-14T18:41:45.786Z,14.98
2022-09-14T18:44:13.906Z,14.98
2022-09-14T18:46:44.297Z,14.99
2022-09-14T18:49:12.553Z,14.99
2022-09-14T18:51:40.758Z,14.99
2022-09-14T18:54:09.551Z,14.99
2022-09-14T18:56:39.514Z,15.00
2022-09-14T18:59:11.465Z,15.01
2022-09-14T19:01:41.064Z,15.01
2022-09-14T19:04:11.465Z,15.01
2022-09-14T19:06:41.761Z,15.02
2022-09-14T19:09:10.972Z,15.02
2022-09-14T19:11:40.543Z,15.04
2022-09-14T19:14:11.680Z,15.05
2022-09-14T19:16:41.584Z,15.06
2022-09-14T19:19:12.868Z,15.07
2022-09-14T19:21:41.096Z,15.07
2022-09-14T19:24:12.912Z,15.09
2022-09-14T19:26:45.960Z,15.08
2022-09-14T19:29:15.929Z,15.10
2022-09-14T19:31:44.441Z,15.09
2022-09-14T19:34:13.136Z,15.11
2022-09-14T19:36:41.351Z,15.11
2022-09-14T19:39:09.937Z,15.13
2022-09-14T19:41:39.316Z,15.13
2022-09-14T19:44:09.703Z,15.14
2022-09-14T19:46:39.470Z,15.14
2022-09-14T19:49:08.251Z,15.14
2022-09-14T19:51:36.458Z,15.15
2022-09-14T19:54:04.899Z,15.16
2022-09-14T19:56:33.457Z,15.17
2022-09-14T19:59:03.948Z,15.17
2022-09-14T20:01:35.862Z,15.19
2022-09-14T20:04:05.475Z,15.18
2022-09-14T20:06:36.767Z,15.19
2022-09-14T20:09:09.184Z,15.19
2022-09-14T20:11:40.726Z,15.19
2022-09-14T20:14:13.012Z,15.21
2022-09-14T20:16:44.913Z,15.22
2022-09-14T20:19:15.600Z,15.24
2022-09-14T20:21:45.453Z,15.25
2022-09-14T20:24:18.219Z,15.27
2022-09-14T20:26:47.585Z,15.28
2022-09-14T20:29:17.547Z,15.29
2022-09-14T20:31:48.104Z,15.29
2022-09-14T20:34:19.664Z,15.30
2022-09-14T20:36:48.209Z,15.30
2022-09-14T20:39:16.539Z,15.32
2022-09-14T20:41:44.976Z,15.34
2022-09-14T20:44:13.897Z,15.35
2022-09-14T20:46:45.493Z,15.36
2022-09-14T20:49:16.994Z,15.36
2022-09-14T20:51:45.497Z,15.36
2022-09-14T20:54:16.683Z,15.36
2022-09-14T20:56:46.047Z,15.38
2022-09-14T20:59:18.302Z,15.38
2022-09-14T21:01:49.409Z,15.39
2022-09-14T21:04:21.656Z,15.39
2022-09-14T21:06:53.111Z,15.40
2022-09-14T21:09:24.275Z,15.40
2022-09-14T21:11:53.358Z,15.42
2022-09-14T21:14:22.451Z,15.41
2022-09-14T21:16:55.404Z,15.42
2022-09-14T21:19:28.028Z,15.41
2022-09-14T21:21:56.820Z,15.42
2022-09-14T21:24:25.693Z,15.42
2022-09-14T21:26:53.892Z,15.43
2022-09-14T21:29:24.593Z,15.42
2022-09-14T21:31:53.434Z,15.40
2022-09-14T21:34:21.712Z,15.38
2022-09-14T21:36:52.818Z,15.31
2022-09-14T21:39:24.020Z,15.29
2022-09-14T21:41:58.726Z,15.28
2022-09-14T21:44:31.018Z,15.25
2022-09-14T21:46:59.235Z,15.21
2022-09-14T21:49:27.555Z,15.20
2022-09-14T21:51:57.103Z,15.17
2022-09-14T21:54:25.598Z,15.16
2022-09-14T21:56:54.490Z,15.13
2022-09-14T21:59:24.087Z,15.13
2022-09-14T22:01:52.897Z,15.13
2022-09-14T22:04:24.981Z,15.12
2022-09-14T22:06:54.373Z,15.10
2022-09-14T22:09:27.062Z,15.09
2022-09-14T22:11:55.662Z,15.05
2022-09-14T22:14:26.429Z,15.03
2022-09-14T22:16:55.308Z,15.02
2022-09-14T22:19:27.238Z,15.00
2022-09-14T22:21:56.564Z,15.00
2022-09-14T22:24:34.901Z,14.98
2022-09-14T22:27:06.543Z,14.97
2022-09-14T22:29:34.745Z,14.97
2022-09-14T22:32:05.536Z,14.98
2022-09-14T22:34:35.150Z,14.97
2022-09-14T22:37:03.415Z,14.98
2022-09-14T22:39:33.047Z,14.98
2022-09-14T22:42:01.242Z,14.99
2022-09-14T22:44:29.409Z,15.00
2022-09-14T22:46:57.654Z,15.00
2022-09-14T22:49:26.039Z,15.00
2022-09-14T22:51:54.239Z,15.01
2022-09-14T22:54:22.542Z,15.01
2022-09-14T22:56:52.081Z,15.01
2022-09-14T22:59:20.514Z,15.04
2022-09-14T23:01:48.709Z,15.04
2022-09-14T23:04:16.902Z,15.05
2022-09-14T23:06:48.449Z,15.06
2022-09-14T23:09:19.489Z,15.05
2022-09-14T23:11:48.763Z,15.06
2022-09-14T23:14:18.638Z,15.08
2022-09-14T23:16:47.014Z,15.08
2022-09-14T23:19:17.674Z,15.08
2022-09-14T23:21:46.538Z,15.09
2022-09-14T23:24:15.183Z,15.10
2022-09-14T23:26:43.640Z,15.10
2022-09-14T23:29:18.174Z,15.09
2022-09-14T23:31:46.773Z,15.09
2022-09-14T23:34:15.489Z,15.08
2022-09-14T23:36:43.786Z,15.08
2022-09-14T23:39:12.053Z,15.09
2022-09-14T23:41:40.749Z,15.08
2022-09-14T23:44:11.981Z,15.09
2022-09-14T23:46:41.825Z,15.09
2022-09-14T23:49:11.829Z,15.08
2022-09-14T23:51:40.219Z,15.09
2022-09-14T23:54:09.255Z,15.08
2022-09-14T23:56:38.544Z,15.08
2022-09-14T23:59:07.211Z,15.05
